Terminal Aerodrome Forecast
Issued by NWS Twin Cities, MN

Home | Current Version | Previous Version | Graphics & Text | Print | Product List | Glossary On
Versions: 1 2 3 4 5 6 7 8 9 10 11 12 13 14 15 16 17 18 19 20 21 22 23 24 25 26 27 28
242
FTUS43 KMPX 191743
TAFMSP
TAF
KMSP 191743Z 1918/2024 14014G22KT P6SM SCT025 BKN050
     FM192300 14015G22KT P6SM SCT025
     FM200500 14018G25KT P6SM BKN050 WS018/16050KT
     FM200900 15015G22KT 6SM SHRA VCTS BKN020CB OVC040 WS018/17050KT
     FM201100 18012KT P6SM BKN025
     FM201600 27010KT P6SM SKC=

USA.gov is the U.S. government's official web portal to all federal, state and local government web resources and services.